sensor_id;sensor_type;location;lat;lon;timestamp;P1;durP1;ratioP1;P2;durP2;ratioP2
14994;SDS011;7593;49.006;8.372;2023-05-24T00:00:18;5.55;;;3.40;;
14994;SDS011;7593;49.006;8.372;2023-05-24T00:02:46;5.72;;;3.40;;
14994;SDS011;7593;49.006;8.372;2023-05-24T00:05:12;5.57;;;3.13;;
14994;SDS011;7593;49.006;8.372;2023-05-24T00:07:40;5.95;;;3.55;;
14994;SDS011;7593;49.006;8.372;2023-05-24T00:10:09;6.97;;;3.30;;
14994;SDS011;7593;49.006;8.372;2023-05-24T00:12:37;9.20;;;3.63;;
14994;SDS011;7593;49.006;8.372;2023-05-24T00:15:04;6.82;;;3.70;;
14994;SDS011;7593;49.006;8.372;2023-05-24T00:17:31;6.25;;;3.50;;
14994;SDS011;7593;49.006;8.372;2023-05-24T00:19:58;5.25;;;3.72;;
14994;SDS011;7593;49.006;8.372;2023-05-24T00:22:25;6.75;;;3.50;;
14994;SDS011;7593;49.006;8.372;2023-05-24T00:24:52;6.22;;;3.85;;
14994;SDS011;7593;49.006;8.372;2023-05-24T00:27:20;6.60;;;3.80;;
14994;SDS011;7593;49.006;8.372;2023-05-24T00:29:47;7.35;;;3.50;;
14994;SDS011;7593;49.006;8.372;2023-05-24T00:32:14;6.22;;;3.20;;
14994;SDS011;7593;49.006;8.372;2023-05-24T00:34:41;7.47;;;3.67;;
14994;SDS011;7593;49.006;8.372;2023-05-24T00:37:08;9.00;;;4.07;;
14994;SDS011;7593;49.006;8.372;2023-05-24T00:39:34;5.22;;;3.72;;
14994;SDS011;7593;49.006;8.372;2023-05-24T00:42:01;7.25;;;3.95;;
14994;SDS011;7593;49.006;8.372;2023-05-24T00:44:29;6.82;;;3.88;;
14994;SDS011;7593;49.006;8.372;2023-05-24T00:46:56;5.55;;;3.80;;
14994;SDS011;7593;49.006;8.372;2023-05-24T00:49:23;5.75;;;3.63;;
14994;SDS011;7593;49.006;8.372;2023-05-24T00:51:50;6.43;;;3.80;;
14994;SDS011;7593;49.006;8.372;2023-05-24T00:54:18;7.15;;;3.80;;
14994;SDS011;7593;49.006;8.372;2023-05-24T00:56:45;7.47;;;3.60;;
14994;SDS011;7593;49.006;8.372;2023-05-24T00:59:13;7.05;;;3.60;;
14994;SDS011;7593;49.006;8.372;2023-05-24T01:01:41;7.57;;;3.58;;
14994;SDS011;7593;49.006;8.372;2023-05-24T01:04:11;6.75;;;3.55;;
14994;SDS011;7593;49.006;8.372;2023-05-24T01:06:41;7.30;;;4.22;;
14994;SDS011;7593;49.006;8.372;2023-05-24T01:09:21;7.60;;;4.10;;
14994;SDS011;7593;49.006;8.372;2023-05-24T01:12:06;7.32;;;3.90;;
14994;SDS011;7593;49.006;8.372;2023-05-24T01:14:40;9.23;;;4.38;;
14994;SDS011;7593;49.006;8.372;2023-05-24T01:17:29;6.57;;;3.80;;
14994;SDS011;7593;49.006;8.372;2023-05-24T01:20:01;8.07;;;4.05;;
14994;SDS011;7593;49.006;8.372;2023-05-24T01:22:37;7.82;;;3.88;;
14994;SDS011;7593;49.006;8.372;2023-05-24T01:25:18;7.18;;;3.85;;
14994;SDS011;7593;49.006;8.372;2023-05-24T01:28:13;6.00;;;3.55;;
14994;SDS011;7593;49.006;8.372;2023-05-24T01:30:42;8.57;;;4.07;;
14994;SDS011;7593;49.006;8.372;2023-05-24T01:33:09;9.75;;;4.22;;
14994;SDS011;7593;49.006;8.372;2023-05-24T01:35:36;5.65;;;3.95;;
14994;SDS011;7593;49.006;8.372;2023-05-24T01:38:06;6.97;;;4.43;;
14994;SDS011;7593;49.006;8.372;2023-05-24T01:40:33;6.50;;;4.00;;
14994;SDS011;7593;49.006;8.372;2023-05-24T01:43:02;10.52;;;4.22;;
14994;SDS011;7593;49.006;8.372;2023-05-24T01:45:37;9.23;;;4.07;;
14994;SDS011;7593;49.006;8.372;2023-05-24T01:48:11;6.90;;;4.25;;
14994;SDS011;7593;49.006;8.372;2023-05-24T01:50:44;9.63;;;4.47;;
14994;SDS011;7593;49.006;8.372;2023-05-24T01:53:15;10.82;;;3.95;;
14994;SDS011;7593;49.006;8.372;2023-05-24T01:55:45;7.72;;;4.10;;
14994;SDS011;7593;49.006;8.372;2023-05-24T01:58:15;7.47;;;4.30;;
14994;SDS011;7593;49.006;8.372;2023-05-24T02:00:45;6.63;;;3.80;;
14994;SDS011;7593;49.006;8.372;2023-05-24T02:03:12;7.60;;;3.97;;
14994;SDS011;7593;49.006;8.372;2023-05-24T02:05:40;9.88;;;4.28;;
14994;SDS011;7593;49.006;8.372;2023-05-24T02:08:08;10.30;;;4.30;;
14994;SDS011;7593;49.006;8.372;2023-05-24T02:10:35;7.35;;;4.22;;
14994;SDS011;7593;49.006;8.372;2023-05-24T02:13:03;6.40;;;3.78;;
14994;SDS011;7593;49.006;8.372;2023-05-24T02:15:30;10.68;;;3.70;;
14994;SDS011;7593;49.006;8.372;2023-05-24T02:18:00;9.25;;;4.15;;
14994;SDS011;7593;49.006;8.372;2023-05-24T02:20:28;8.45;;;4.13;;
14994;SDS011;7593;49.006;8.372;2023-05-24T02:22:55;8.75;;;3.83;;
14994;SDS011;7593;49.006;8.372;2023-05-24T02:25:22;8.77;;;4.05;;
14994;SDS011;7593;49.006;8.372;2023-05-24T02:27:49;5.55;;;3.53;;
14994;SDS011;7593;49.006;8.372;2023-05-24T02:30:17;6.85;;;3.75;;
14994;SDS011;7593;49.006;8.372;2023-05-24T02:32:44;8.45;;;3.85;;
14994;SDS011;7593;49.006;8.372;2023-05-24T02:35:12;7.13;;;3.58;;
14994;SDS011;7593;49.006;8.372;2023-05-24T02:37:39;8.77;;;4.05;;
14994;SDS011;7593;49.006;8.372;2023-05-24T02:40:06;11.48;;;4.18;;
14994;SDS011;7593;49.006;8.372;2023-05-24T02:42:33;9.45;;;4.00;;
14994;SDS011;7593;49.006;8.372;2023-05-24T02:45:00;8.23;;;3.92;;
14994;SDS011;7593;49.006;8.372;2023-05-24T02:47:27;7.53;;;3.75;;
14994;SDS011;7593;49.006;8.372;2023-05-24T02:49:57;9.98;;;3.97;;
14994;SDS011;7593;49.006;8.372;2023-05-24T02:52:25;10.32;;;4.00;;
14994;SDS011;7593;49.006;8.372;2023-05-24T02:54:52;8.35;;;4.15;;
14994;SDS011;7593;49.006;8.372;2023-05-24T02:57:19;9.02;;;4.07;;
14994;SDS011;7593;49.006;8.372;2023-05-24T02:59:48;11.90;;;3.90;;
14994;SDS011;7593;49.006;8.372;2023-05-24T03:02:15;8.05;;;3.45;;
14994;SDS011;7593;49.006;8.372;2023-05-24T03:04:43;7.97;;;3.80;;
14994;SDS011;7593;49.006;8.372;2023-05-24T03:07:10;8.32;;;3.97;;
14994;SDS011;7593;49.006;8.372;2023-05-24T03:09:39;8.38;;;3.80;;
14994;SDS011;7593;49.006;8.372;2023-05-24T03:12:08;9.63;;;4.10;;
14994;SDS011;7593;49.006;8.372;2023-05-24T03:14:35;8.38;;;3.97;;
14994;SDS011;7593;49.006;8.372;2023-05-24T03:17:01;14.02;;;4.28;;
14994;SDS011;7593;49.006;8.372;2023-05-24T03:19:28;9.52;;;3.58;;
14994;SDS011;7593;49.006;8.372;2023-05-24T03:21:55;9.30;;;3.83;;
14994;SDS011;7593;49.006;8.372;2023-05-24T03:24:22;6.90;;;3.70;;
14994;SDS011;7593;49.006;8.372;2023-05-24T03:26:51;9.57;;;4.18;;
14994;SDS011;7593;49.006;8.372;2023-05-24T03:29:21;10.40;;;4.55;;
14994;SDS011;7593;49.006;8.372;2023-05-24T03:31:47;12.27;;;4.10;;
14994;SDS011;7593;49.006;8.372;2023-05-24T03:34:14;6.70;;;3.38;;
14994;SDS011;7593;49.006;8.372;2023-05-24T03:36:41;8.98;;;3.75;;
14994;SDS011;7593;49.006;8.372;2023-05-24T03:39:08;12.45;;;4.30;;
14994;SDS011;7593;49.006;8.372;2023-05-24T03:41:35;9.43;;;4.35;;
14994;SDS011;7593;49.006;8.372;2023-05-24T03:44:03;12.55;;;4.38;;
14994;SDS011;7593;49.006;8.372;2023-05-24T03:46:30;8.57;;;3.90;;
14994;SDS011;7593;49.006;8.372;2023-05-24T03:48:56;9.05;;;3.83;;
14994;SDS011;7593;49.006;8.372;2023-05-24T03:51:23;8.88;;;3.95;;
14994;SDS011;7593;49.006;8.372;2023-05-24T03:53:53;9.23;;;3.80;;
14994;SDS011;7593;49.006;8.372;2023-05-24T03:56:20;10.00;;;4.30;;
14994;SDS011;7593;49.006;8.372;2023-05-24T03:58:47;8.43;;;3.63;;
14994;SDS011;7593;49.006;8.372;2023-05-24T04:01:15;10.02;;;4.00;;
14994;SDS011;7593;49.006;8.372;2023-05-24T04:03:43;10.57;;;3.58;;
14994;SDS011;7593;49.006;8.372;2023-05-24T04:06:10;9.60;;;3.97;;
14994;SDS011;7593;49.006;8.372;2023-05-24T04:08:38;8.50;;;3.72;;
14994;SDS011;7593;49.006;8.372;2023-05-24T04:11:04;9.45;;;4.45;;
14994;SDS011;7593;49.006;8.372;2023-05-24T04:13:31;10.07;;;4.03;;
14994;SDS011;7593;49.006;8.372;2023-05-24T04:15:58;9.60;;;4.18;;
14994;SDS011;7593;49.006;8.372;2023-05-24T04:18:26;8.70;;;3.95;;
14994;SDS011;7593;49.006;8.372;2023-05-24T04:20:53;9.27;;;3.72;;
14994;SDS011;7593;49.006;8.372;2023-05-24T04:23:20;9.18;;;4.25;;
14994;SDS011;7593;49.006;8.372;2023-05-24T04:25:46;9.80;;;3.72;;
14994;SDS011;7593;49.006;8.372;2023-05-24T04:28:14;8.07;;;3.90;;
14994;SDS011;7593;49.006;8.372;2023-05-24T04:30:41;8.77;;;3.72;;
14994;SDS011;7593;49.006;8.372;2023-05-24T04:33:10;12.98;;;4.65;;
14994;SDS011;7593;49.006;8.372;2023-05-24T04:35:38;10.02;;;4.35;;
14994;SDS011;7593;49.006;8.372;2023-05-24T04:38:05;6.53;;;3.50;;
14994;SDS011;7593;49.006;8.372;2023-05-24T04:40:32;7.72;;;3.70;;
14994;SDS011;7593;49.006;8.372;2023-05-24T04:42:59;10.25;;;3.90;;
14994;SDS011;7593;49.006;8.372;2023-05-24T04:45:25;10.27;;;4.28;;
14994;SDS011;7593;49.006;8.372;2023-05-24T04:47:54;14.55;;;4.68;;
14994;SDS011;7593;49.006;8.372;2023-05-24T04:50:21;11.60;;;4.20;;
14994;SDS011;7593;49.006;8.372;2023-05-24T04:52:49;8.75;;;3.78;;
14994;SDS011;7593;49.006;8.372;2023-05-24T04:55:16;14.88;;;3.88;;
14994;SDS011;7593;49.006;8.372;2023-05-24T04:57:43;9.73;;;3.97;;
14994;SDS011;7593;49.006;8.372;2023-05-24T05:00:10;11.73;;;3.60;;
14994;SDS011;7593;49.006;8.372;2023-05-24T05:02:37;8.95;;;3.80;;
14994;SDS011;7593;49.006;8.372;2023-05-24T05:05:05;11.40;;;3.63;;
14994;SDS011;7593;49.006;8.372;2023-05-24T05:07:32;7.78;;;4.00;;
14994;SDS011;7593;49.006;8.372;2023-05-24T05:10:00;7.63;;;3.90;;
14994;SDS011;7593;49.006;8.372;2023-05-24T05:12:26;10.05;;;3.70;;
14994;SDS011;7593;49.006;8.372;2023-05-24T05:14:53;16.27;;;4.07;;
14994;SDS011;7593;49.006;8.372;2023-05-24T05:17:20;11.38;;;4.47;;
14994;SDS011;7593;49.006;8.372;2023-05-24T05:19:47;10.02;;;3.47;;
14994;SDS011;7593;49.006;8.372;2023-05-24T05:22:13;10.48;;;3.30;;
14994;SDS011;7593;49.006;8.372;2023-05-24T05:24:40;12.45;;;3.80;;
14994;SDS011;7593;49.006;8.372;2023-05-24T05:27:08;9.48;;;3.90;;
14994;SDS011;7593;49.006;8.372;2023-05-24T05:29:35;10.18;;;3.78;;
14994;SDS011;7593;49.006;8.372;2023-05-24T05:32:01;10.05;;;4.10;;
14994;SDS011;7593;49.006;8.372;2023-05-24T05:34:28;10.23;;;4.00;;
14994;SDS011;7593;49.006;8.372;2023-05-24T05:36:55;11.68;;;3.72;;
14994;SDS011;7593;49.006;8.372;2023-05-24T05:39:22;9.38;;;4.03;;
14994;SDS011;7593;49.006;8.372;2023-05-24T05:41:48;11.10;;;4.13;;
14994;SDS011;7593;49.006;8.372;2023-05-24T05:44:16;7.88;;;3.53;;
14994;SDS011;7593;49.006;8.372;2023-05-24T05:46:43;10.48;;;3.85;;
14994;SDS011;7593;49.006;8.372;2023-05-24T05:49:10;12.57;;;4.53;;
14994;SDS011;7593;49.006;8.372;2023-05-24T05:51:37;8.55;;;3.63;;
14994;SDS011;7593;49.006;8.372;2023-05-24T05:54:04;10.68;;;3.88;;
14994;SDS011;7593;49.006;8.372;2023-05-24T05:56:32;9.02;;;3.83;;
14994;SDS011;7593;49.006;8.372;2023-05-24T05:59:05;12.25;;;4.05;;
14994;SDS011;7593;49.006;8.372;2023-05-24T06:01:33;9.73;;;4.05;;
14994;SDS011;7593;49.006;8.372;2023-05-24T06:04:02;9.45;;;3.78;;
14994;SDS011;7593;49.006;8.372;2023-05-24T06:06:28;9.95;;;3.45;;
14994;SDS011;7593;49.006;8.372;2023-05-24T06:08:57;9.52;;;4.05;;
14994;SDS011;7593;49.006;8.372;2023-05-24T06:11:24;9.93;;;4.10;;
14994;SDS011;7593;49.006;8.372;2023-05-24T06:13:52;11.40;;;4.10;;
14994;SDS011;7593;49.006;8.372;2023-05-24T06:16:21;13.80;;;3.72;;
14994;SDS011;7593;49.006;8.372;2023-05-24T06:18:50;12.20;;;3.78;;
14994;SDS011;7593;49.006;8.372;2023-05-24T06:21:16;9.18;;;4.28;;
14994;SDS011;7593;49.006;8.372;2023-05-24T06:23:43;10.90;;;4.13;;
14994;SDS011;7593;49.006;8.372;2023-05-24T06:26:13;8.80;;;3.65;;
14994;SDS011;7593;49.006;8.372;2023-05-24T06:28:39;13.07;;;4.60;;
14994;SDS011;7593;49.006;8.372;2023-05-24T06:31:06;8.80;;;3.85;;
14994;SDS011;7593;49.006;8.372;2023-05-24T06:33:33;12.57;;;4.38;;
14994;SDS011;7593;49.006;8.372;2023-05-24T06:36:01;13.43;;;4.20;;
14994;SDS011;7593;49.006;8.372;2023-05-24T06:38:28;12.30;;;3.92;;
14994;SDS011;7593;49.006;8.372;2023-05-24T06:40:56;9.95;;;3.75;;
14994;SDS011;7593;49.006;8.372;2023-05-24T06:43:23;12.57;;;4.47;;
14994;SDS011;7593;49.006;8.372;2023-05-24T06:45:50;12.02;;;4.00;;
14994;SDS011;7593;49.006;8.372;2023-05-24T06:48:17;14.15;;;3.70;;
14994;SDS011;7593;49.006;8.372;2023-05-24T06:50:43;10.70;;;4.20;;
14994;SDS011;7593;49.006;8.372;2023-05-24T06:53:12;11.05;;;4.05;;
14994;SDS011;7593;49.006;8.372;2023-05-24T06:55:40;8.93;;;3.88;;
14994;SDS011;7593;49.006;8.372;2023-05-24T06:58:06;9.55;;;4.10;;
14994;SDS011;7593;49.006;8.372;2023-05-24T07:00:38;9.75;;;3.72;;
14994;SDS011;7593;49.006;8.372;2023-05-24T07:03:05;8.80;;;3.75;;
14994;SDS011;7593;49.006;8.372;2023-05-24T07:05:31;9.25;;;4.07;;
14994;SDS011;7593;49.006;8.372;2023-05-24T07:07:58;11.25;;;4.20;;
14994;SDS011;7593;49.006;8.372;2023-05-24T07:10:27;10.63;;;4.28;;
14994;SDS011;7593;49.006;8.372;2023-05-24T07:12:54;12.15;;;3.83;;
14994;SDS011;7593;49.006;8.372;2023-05-24T07:15:20;10.50;;;4.10;;
14994;SDS011;7593;49.006;8.372;2023-05-24T07:17:47;9.10;;;4.00;;
14994;SDS011;7593;49.006;8.372;2023-05-24T07:20:14;8.43;;;3.83;;
14994;SDS011;7593;49.006;8.372;2023-05-24T07:22:41;12.05;;;4.90;;
14994;SDS011;7593;49.006;8.372;2023-05-24T07:25:08;8.73;;;3.75;;
14994;SDS011;7593;49.006;8.372;2023-05-24T07:27:36;16.80;;;3.55;;
14994;SDS011;7593;49.006;8.372;2023-05-24T07:30:04;8.77;;;3.50;;
14994;SDS011;7593;49.006;8.372;2023-05-24T07:32:32;9.95;;;3.45;;
14994;SDS011;7593;49.006;8.372;2023-05-24T07:34:58;13.05;;;3.70;;
14994;SDS011;7593;49.006;8.372;2023-05-24T07:37:25;12.55;;;4.20;;
14994;SDS011;7593;49.006;8.372;2023-05-24T07:39:52;10.98;;;3.60;;
14994;SDS011;7593;49.006;8.372;2023-05-24T07:42:18;11.15;;;3.85;;
14994;SDS011;7593;49.006;8.372;2023-05-24T07:44:46;9.82;;;3.75;;
14994;SDS011;7593;49.006;8.372;2023-05-24T07:47:13;6.97;;;2.97;;
14994;SDS011;7593;49.006;8.372;2023-05-24T07:49:40;12.52;;;3.85;;
14994;SDS011;7593;49.006;8.372;2023-05-24T07:52:07;9.65;;;3.65;;
14994;SDS011;7593;49.006;8.372;2023-05-24T07:54:34;8.18;;;3.38;;
14994;SDS011;7593;49.006;8.372;2023-05-24T07:57:01;8.05;;;3.30;;
14994;SDS011;7593;49.006;8.372;2023-05-24T07:59:28;10.00;;;3.00;;
14994;SDS011;7593;49.006;8.372;2023-05-24T08:01:56;10.98;;;3.90;;
14994;SDS011;7593;49.006;8.372;2023-05-24T08:04:28;7.05;;;3.15;;
14994;SDS011;7593;49.006;8.372;2023-05-24T08:06:55;10.18;;;3.10;;
14994;SDS011;7593;49.006;8.372;2023-05-24T08:09:21;10.07;;;3.85;;
14994;SDS011;7593;49.006;8.372;2023-05-24T08:11:48;14.20;;;3.78;;
14994;SDS011;7593;49.006;8.372;2023-05-24T08:14:15;8.48;;;3.40;;
14994;SDS011;7593;49.006;8.372;2023-05-24T08:16:42;6.80;;;3.20;;
14994;SDS011;7593;49.006;8.372;2023-05-24T08:19:10;8.15;;;3.33;;
14994;SDS011;7593;49.006;8.372;2023-05-24T08:21:36;9.52;;;3.40;;
14994;SDS011;7593;49.006;8.372;2023-05-24T08:24:03;9.60;;;3.50;;
14994;SDS011;7593;49.006;8.372;2023-05-24T08:26:30;7.43;;;3.30;;
14994;SDS011;7593;49.006;8.372;2023-05-24T08:28:57;9.68;;;3.55;;
14994;SDS011;7593;49.006;8.372;2023-05-24T08:31:23;8.35;;;3.75;;
14994;SDS011;7593;49.006;8.372;2023-05-24T08:33:51;10.90;;;3.35;;
14994;SDS011;7593;49.006;8.372;2023-05-24T08:36:20;11.35;;;3.50;;
14994;SDS011;7593;49.006;8.372;2023-05-24T08:38:47;9.65;;;3.60;;
14994;SDS011;7593;49.006;8.372;2023-05-24T08:41:13;10.50;;;3.60;;
14994;SDS011;7593;49.006;8.372;2023-05-24T08:43:41;10.70;;;3.38;;
14994;SDS011;7593;49.006;8.372;2023-05-24T08:46:08;9.02;;;3.63;;
14994;SDS011;7593;49.006;8.372;2023-05-24T08:48:38;6.38;;;3.15;;
14994;SDS011;7593;49.006;8.372;2023-05-24T08:51:09;9.90;;;3.20;;
14994;SDS011;7593;49.006;8.372;2023-05-24T08:53:38;8.90;;;3.33;;
14994;SDS011;7593;49.006;8.372;2023-05-24T08:56:13;7.07;;;3.00;;
14994;SDS011;7593;49.006;8.372;2023-05-24T08:58:41;10.30;;;3.72;;
14994;SDS011;7593;49.006;8.372;2023-05-24T09:01:08;11.48;;;3.08;;
14994;SDS011;7593;49.006;8.372;2023-05-24T09:03:35;11.88;;;3.60;;
14994;SDS011;7593;49.006;8.372;2023-05-24T09:06:03;7.35;;;2.90;;
14994;SDS011;7593;49.006;8.372;2023-05-24T09:08:30;10.23;;;3.03;;
14994;SDS011;7593;49.006;8.372;2023-05-24T09:11:00;7.95;;;3.13;;
14994;SDS011;7593;49.006;8.372;2023-05-24T09:13:29;8.57;;;3.10;;
14994;SDS011;7593;49.006;8.372;2023-05-24T09:15:57;11.40;;;3.95;;
14994;SDS011;7593;49.006;8.372;2023-05-24T09:18:24;8.43;;;2.80;;
14994;SDS011;7593;49.006;8.372;2023-05-24T09:20:51;14.30;;;3.30;;
14994;SDS011;7593;49.006;8.372;2023-05-24T09:23:18;7.43;;;3.10;;
14994;SDS011;7593;49.006;8.372;2023-05-24T09:25:45;7.15;;;2.60;;
14994;SDS011;7593;49.006;8.372;2023-05-24T09:28:15;9.98;;;3.08;;
14994;SDS011;7593;49.006;8.372;2023-05-24T09:30:43;6.95;;;2.92;;
14994;SDS011;7593;49.006;8.372;2023-05-24T09:33:11;8.50;;;3.90;;
14994;SDS011;7593;49.006;8.372;2023-05-24T09:35:40;8.43;;;3.30;;
14994;SDS011;7593;49.006;8.372;2023-05-24T09:38:14;8.57;;;2.72;;
14994;SDS011;7593;49.006;8.372;2023-05-24T09:40:43;7.10;;;2.90;;
14994;SDS011;7593;49.006;8.372;2023-05-24T09:43:10;8.35;;;2.50;;
14994;SDS011;7593;49.006;8.372;2023-05-24T09:45:41;7.80;;;3.20;;
14994;SDS011;7593;49.006;8.372;2023-05-24T09:48:10;11.57;;;3.33;;
14994;SDS011;7593;49.006;8.372;2023-05-24T09:50:38;10.73;;;3.38;;
14994;SDS011;7593;49.006;8.372;2023-05-24T09:53:05;7.10;;;2.88;;
14994;SDS011;7593;49.006;8.372;2023-05-24T09:55:34;6.43;;;2.60;;
14994;SDS011;7593;49.006;8.372;2023-05-24T09:58:02;6.13;;;2.95;;
14994;SDS011;7593;49.006;8.372;2023-05-24T10:00:31;8.25;;;3.13;;
14994;SDS011;7593;49.006;8.372;2023-05-24T10:03:02;8.80;;;2.97;;
14994;SDS011;7593;49.006;8.372;2023-05-24T10:05:31;7.97;;;2.78;;
14994;SDS011;7593;49.006;8.372;2023-05-24T10:07:58;7.15;;;3.03;;
14994;SDS011;7593;49.006;8.372;2023-05-24T10:10:26;6.97;;;2.70;;
14994;SDS011;7593;49.006;8.372;2023-05-24T10:12:56;8.52;;;2.95;;
14994;SDS011;7593;49.006;8.372;2023-05-24T10:15:26;7.43;;;3.13;;
14994;SDS011;7593;49.006;8.372;2023-05-24T10:17:54;10.32;;;3.10;;
14994;SDS011;7593;49.006;8.372;2023-05-24T10:20:23;10.73;;;3.15;;
14994;SDS011;7593;49.006;8.372;2023-05-24T10:22:51;7.65;;;2.92;;
14994;SDS011;7593;49.006;8.372;2023-05-24T10:25:21;7.75;;;3.20;;
14994;SDS011;7593;49.006;8.372;2023-05-24T10:27:50;9.65;;;3.35;;
14994;SDS011;7593;49.006;8.372;2023-05-24T10:30:21;6.72;;;2.60;;
14994;SDS011;7593;49.006;8.372;2023-05-24T10:32:54;9.55;;;3.05;;
14994;SDS011;7593;49.006;8.372;2023-05-24T10:35:23;6.88;;;3.17;;
14994;SDS011;7593;49.006;8.372;2023-05-24T10:37:51;8.65;;;2.75;;
14994;SDS011;7593;49.006;8.372;2023-05-24T10:40:19;6.53;;;2.90;;
14994;SDS011;7593;49.006;8.372;2023-05-24T10:42:49;8.18;;;3.00;;
14994;SDS011;7593;49.006;8.372;2023-05-24T10:45:32;7.63;;;2.90;;
14994;SDS011;7593;49.006;8.372;2023-05-24T10:50:58;6.43;;;2.95;;
14994;SDS011;7593;49.006;8.372;2023-05-24T10:53:26;6.28;;;2.67;;
14994;SDS011;7593;49.006;8.372;2023-05-24T10:55:53;8.07;;;2.75;;
14994;SDS011;7593;49.006;8.372;2023-05-24T10:58:21;7.68;;;2.80;;
14994;SDS011;7593;49.006;8.372;2023-05-24T11:00:52;6.78;;;2.72;;
14994;SDS011;7593;49.006;8.372;2023-05-24T11:03:20;10.13;;;2.78;;
14994;SDS011;7593;49.006;8.372;2023-05-24T11:05:50;9.70;;;2.97;;
14994;SDS011;7593;49.006;8.372;2023-05-24T11:08:23;14.40;;;3.30;;
14994;SDS011;7593;49.006;8.372;2023-05-24T11:11:00;8.25;;;3.00;;
14994;SDS011;7593;49.006;8.372;2023-05-24T11:13:29;7.07;;;3.00;;
14994;SDS011;7593;49.006;8.372;2023-05-24T11:15:56;9.23;;;3.15;;
14994;SDS011;7593;49.006;8.372;2023-05-24T11:18:23;9.15;;;3.28;;
14994;SDS011;7593;49.006;8.372;2023-05-24T11:20:50;10.20;;;3.20;;
14994;SDS011;7593;49.006;8.372;2023-05-24T11:23:17;9.68;;;3.08;;
14994;SDS011;7593;49.006;8.372;2023-05-24T11:25:46;6.95;;;3.17;;
14994;SDS011;7593;49.006;8.372;2023-05-24T11:28:13;12.38;;;3.40;;
14994;SDS011;7593;49.006;8.372;2023-05-24T11:30:40;8.40;;;3.53;;
14994;SDS011;7593;49.006;8.372;2023-05-24T11:33:14;6.47;;;2.97;;
14994;SDS011;7593;49.006;8.372;2023-05-24T11:35:42;7.55;;;3.10;;
14994;SDS011;7593;49.006;8.372;2023-05-24T11:38:09;7.50;;;2.97;;
14994;SDS011;7593;49.006;8.372;2023-05-24T11:40:37;7.30;;;3.22;;
14994;SDS011;7593;49.006;8.372;2023-05-24T11:43:10;8.00;;;3.05;;
14994;SDS011;7593;49.006;8.372;2023-05-24T11:45:38;8.20;;;2.63;;
14994;SDS011;7593;49.006;8.372;2023-05-24T11:48:07;7.15;;;3.53;;
14994;SDS011;7593;49.006;8.372;2023-05-24T11:50:36;9.02;;;2.90;;
14994;SDS011;7593;49.006;8.372;2023-05-24T11:53:05;9.10;;;3.22;;
14994;SDS011;7593;49.006;8.372;2023-05-24T11:55:31;7.20;;;2.80;;
14994;SDS011;7593;49.006;8.372;2023-05-24T11:57:58;7.85;;;3.17;;
14994;SDS011;7593;49.006;8.372;2023-05-24T12:00:32;10.07;;;3.47;;
14994;SDS011;7593;49.006;8.372;2023-05-24T12:03:00;9.18;;;3.28;;
14994;SDS011;7593;49.006;8.372;2023-05-24T12:05:31;6.72;;;3.63;;
14994;SDS011;7593;49.006;8.372;2023-05-24T12:08:01;8.48;;;3.08;;
14994;SDS011;7593;49.006;8.372;2023-05-24T12:10:30;7.03;;;3.13;;
14994;SDS011;7593;49.006;8.372;2023-05-24T12:12:57;9.27;;;3.30;;
14994;SDS011;7593;49.006;8.372;2023-05-24T12:15:24;6.13;;;3.25;;
14994;SDS011;7593;49.006;8.372;2023-05-24T12:17:52;10.93;;;3.10;;
14994;SDS011;7593;49.006;8.372;2023-05-24T12:20:18;10.95;;;3.67;;
14994;SDS011;7593;49.006;8.372;2023-05-24T12:22:48;8.57;;;3.38;;
14994;SDS011;7593;49.006;8.372;2023-05-24T12:25:16;6.57;;;2.80;;
14994;SDS011;7593;49.006;8.372;2023-05-24T12:27:45;7.25;;;3.08;;
14994;SDS011;7593;49.006;8.372;2023-05-24T12:30:20;10.73;;;3.33;;
14994;SDS011;7593;49.006;8.372;2023-05-24T12:32:48;7.72;;;2.78;;
14994;SDS011;7593;49.006;8.372;2023-05-24T12:35:17;9.25;;;3.20;;
14994;SDS011;7593;49.006;8.372;2023-05-24T12:37:44;7.22;;;3.15;;
14994;SDS011;7593;49.006;8.372;2023-05-24T12:40:14;7.15;;;2.97;;
14994;SDS011;7593;49.006;8.372;2023-05-24T12:42:44;8.13;;;3.25;;
14994;SDS011;7593;49.006;8.372;2023-05-24T12:45:13;11.95;;;3.55;;
14994;SDS011;7593;49.006;8.372;2023-05-24T12:47:46;8.93;;;3.58;;
14994;SDS011;7593;49.006;8.372;2023-05-24T12:50:14;7.93;;;3.15;;
14994;SDS011;7593;49.006;8.372;2023-05-24T12:52:42;7.60;;;2.78;;
14994;SDS011;7593;49.006;8.372;2023-05-24T12:55:10;8.15;;;2.90;;
14994;SDS011;7593;49.006;8.372;2023-05-24T12:57:37;8.23;;;3.10;;
14994;SDS011;7593;49.006;8.372;2023-05-24T13:00:05;6.32;;;2.83;;
14994;SDS011;7593;49.006;8.372;2023-05-24T13:02:32;6.80;;;2.88;;
14994;SDS011;7593;49.006;8.372;2023-05-24T13:05:00;5.45;;;2.70;;
14994;SDS011;7593;49.006;8.372;2023-05-24T13:07:27;5.18;;;2.65;;
14994;SDS011;7593;49.006;8.372;2023-05-24T13:09:56;5.10;;;2.60;;
14994;SDS011;7593;49.006;8.372;2023-05-24T13:12:24;10.45;;;2.53;;
14994;SDS011;7593;49.006;8.372;2023-05-24T13:14:51;5.70;;;2.53;;
14994;SDS011;7593;49.006;8.372;2023-05-24T13:17:18;8.85;;;2.90;;
14994;SDS011;7593;49.006;8.372;2023-05-24T13:19:45;6.10;;;2.65;;
14994;SDS011;7593;49.006;8.372;2023-05-24T13:22:12;9.27;;;2.90;;
14994;SDS011;7593;49.006;8.372;2023-05-24T13:24:39;10.65;;;2.88;;
14994;SDS011;7593;49.006;8.372;2023-05-24T13:27:07;6.32;;;3.00;;
14994;SDS011;7593;49.006;8.372;2023-05-24T13:29:34;7.90;;;2.95;;
14994;SDS011;7593;49.006;8.372;2023-05-24T13:32:01;8.32;;;2.70;;
14994;SDS011;7593;49.006;8.372;2023-05-24T13:34:27;7.53;;;3.17;;
14994;SDS011;7593;49.006;8.372;2023-05-24T13:36:54;10.23;;;2.78;;
14994;SDS011;7593;49.006;8.372;2023-05-24T13:39:23;9.43;;;2.92;;
14994;SDS011;7593;49.006;8.372;2023-05-24T13:41:51;5.15;;;2.30;;
14994;SDS011;7593;49.006;8.372;2023-05-24T13:44:20;4.45;;;2.53;;
14994;SDS011;7593;49.006;8.372;2023-05-24T13:46:46;4.57;;;2.60;;
14994;SDS011;7593;49.006;8.372;2023-05-24T13:49:13;6.50;;;2.70;;
14994;SDS011;7593;49.006;8.372;2023-05-24T13:51:41;6.00;;;2.50;;
14994;SDS011;7593;49.006;8.372;2023-05-24T13:54:07;5.45;;;2.60;;
14994;SDS011;7593;49.006;8.372;2023-05-24T13:56:35;6.05;;;2.83;;
14994;SDS011;7593;49.006;8.372;2023-05-24T13:59:04;5.32;;;2.83;;
14994;SDS011;7593;49.006;8.372;2023-05-24T14:01:33;7.15;;;3.60;;
14994;SDS011;7593;49.006;8.372;2023-05-24T14:04:01;6.90;;;2.90;;
14994;SDS011;7593;49.006;8.372;2023-05-24T14:06:29;7.95;;;3.05;;
14994;SDS011;7593;49.006;8.372;2023-05-24T14:08:56;5.55;;;2.63;;
14994;SDS011;7593;49.006;8.372;2023-05-24T14:11:24;9.07;;;2.75;;
14994;SDS011;7593;49.006;8.372;2023-05-24T14:13:51;6.15;;;2.58;;
14994;SDS011;7593;49.006;8.372;2023-05-24T14:16:18;6.32;;;2.80;;
14994;SDS011;7593;49.006;8.372;2023-05-24T14:18:46;6.93;;;2.92;;
14994;SDS011;7593;49.006;8.372;2023-05-24T14:21:14;6.35;;;2.58;;
14994;SDS011;7593;49.006;8.372;2023-05-24T14:23:41;8.02;;;3.17;;
14994;SDS011;7593;49.006;8.372;2023-05-24T14:26:07;7.22;;;2.58;;
14994;SDS011;7593;49.006;8.372;2023-05-24T14:28:34;5.10;;;3.53;;
14994;SDS011;7593;49.006;8.372;2023-05-24T14:31:01;5.28;;;2.60;;
14994;SDS011;7593;49.006;8.372;2023-05-24T14:33:28;6.85;;;2.90;;
14994;SDS011;7593;49.006;8.372;2023-05-24T14:35:56;5.07;;;2.50;;
14994;SDS011;7593;49.006;8.372;2023-05-24T14:38:23;5.97;;;2.53;;
14994;SDS011;7593;49.006;8.372;2023-05-24T14:40:50;4.82;;;2.45;;
14994;SDS011;7593;49.006;8.372;2023-05-24T14:43:17;8.07;;;2.70;;
14994;SDS011;7593;49.006;8.372;2023-05-24T14:45:43;8.55;;;2.65;;
14994;SDS011;7593;49.006;8.372;2023-05-24T14:48:10;4.32;;;2.60;;
14994;SDS011;7593;49.006;8.372;2023-05-24T14:50:37;5.43;;;2.40;;
14994;SDS011;7593;49.006;8.372;2023-05-24T14:53:06;4.68;;;2.22;;
14994;SDS011;7593;49.006;8.372;2023-05-24T14:55:35;7.97;;;2.67;;
14994;SDS011;7593;49.006;8.372;2023-05-24T14:58:03;5.80;;;2.50;;
14994;SDS011;7593;49.006;8.372;2023-05-24T15:00:30;7.68;;;3.65;;
14994;SDS011;7593;49.006;8.372;2023-05-24T15:02:57;4.95;;;2.60;;
14994;SDS011;7593;49.006;8.372;2023-05-24T15:05:23;5.28;;;2.72;;